sensor_id;sensor_type;location;lat;lon;timestamp;pressure;altitude;pressure_sealevel;temperature;humidity
63281;BME280;49406;51.044;3.766;2024-02-15T00:01:34;101735.64;;;13.68;100.00
63281;BME280;49406;51.044;3.766;2024-02-15T00:04:08;101721.23;;;13.67;100.00
63281;BME280;49406;51.044;3.766;2024-02-15T00:06:44;101722.82;;;13.68;100.00
63281;BME280;49406;51.044;3.766;2024-02-15T00:09:19;101727.89;;;13.64;100.00
63281;BME280;49406;51.044;3.766;2024-02-15T00:11:53;101721.29;;;13.56;100.00
63281;BME280;49406;51.044;3.766;2024-02-15T00:14:28;101724.46;;;13.58;100.00
63281;BME280;49406;51.044;3.766;2024-02-15T00:17:04;101727.26;;;13.57;100.00
63281;BME280;49406;51.044;3.766;2024-02-15T00:19:39;101724.92;;;13.49;100.00
63281;BME280;49406;51.044;3.766;2024-02-15T00:22:14;101727.70;;;13.45;100.00
63281;BME280;49406;51.044;3.766;2024-02-15T00:24:49;101722.54;;;13.42;100.00
63281;BME280;49406;51.044;3.766;2024-02-15T00:27:24;101719.05;;;13.43;100.00
63281;BME280;49406;51.044;3.766;2024-02-15T00:29:58;101719.04;;;13.43;100.00
63281;BME280;49406;51.044;3.766;2024-02-15T00:32:33;101718.55;;;13.44;100.00
63281;BME280;49406;51.044;3.766;2024-02-15T00:35:08;101708.17;;;13.43;100.00
63281;BME280;49406;51.044;3.766;2024-02-15T00:37:43;101710.06;;;13.41;100.00
63281;BME280;49406;51.044;3.766;2024-02-15T00:40:18;101712.23;;;13.44;100.00
63281;BME280;49406;51.044;3.766;2024-02-15T00:42:54;101710.65;;;13.44;100.00
63281;BME280;49406;51.044;3.766;2024-02-15T00:45:29;101706.63;;;13.45;100.00
63281;BME280;49406;51.044;3.766;2024-02-15T00:48:04;101702.06;;;13.46;100.00
63281;BME280;49406;51.044;3.766;2024-02-15T00:50:39;101701.71;;;13.48;100.00
63281;BME280;49406;51.044;3.766;2024-02-15T00:53:14;101704.22;;;13.52;100.00
63281;BME280;49406;51.044;3.766;2024-02-15T00:55:51;101700.20;;;13.56;100.00
63281;BME280;49406;51.044;3.766;2024-02-15T00:58:25;101691.23;;;13.54;100.00
63281;BME280;49406;51.044;3.766;2024-02-15T01:01:00;101692.45;;;13.54;100.00
63281;BME280;49406;51.044;3.766;2024-02-15T01:03:35;101687.62;;;13.61;100.00
63281;BME280;49406;51.044;3.766;2024-02-15T01:06:10;101689.92;;;13.64;100.00
63281;BME280;49406;51.044;3.766;2024-02-15T01:08:44;101694.49;;;13.64;100.00
63281;BME280;49406;51.044;3.766;2024-02-15T01:11:19;101692.21;;;13.65;100.00
63281;BME280;49406;51.044;3.766;2024-02-15T01:13:54;101692.03;;;13.64;100.00
63281;BME280;49406;51.044;3.766;2024-02-15T01:16:28;101693.09;;;13.64;100.00
63281;BME280;49406;51.044;3.766;2024-02-15T01:19:04;101687.30;;;13.65;100.00
63281;BME280;49406;51.044;3.766;2024-02-15T01:21:38;101685.38;;;13.68;100.00
63281;BME280;49406;51.044;3.766;2024-02-15T01:24:13;101681.18;;;13.69;100.00
63281;BME280;49406;51.044;3.766;2024-02-15T01:26:47;101676.09;;;13.70;100.00
63281;BME280;49406;51.044;3.766;2024-02-15T01:29:22;101675.59;;;13.73;100.00
63281;BME280;49406;51.044;3.766;2024-02-15T01:32:01;101672.24;;;13.73;100.00
63281;BME280;49406;51.044;3.766;2024-02-15T01:34:36;101675.92;;;13.72;100.00
63281;BME280;49406;51.044;3.766;2024-02-15T01:37:11;101679.27;;;13.74;100.00
63281;BME280;49406;51.044;3.766;2024-02-15T01:39:45;101679.12;;;13.76;100.00
63281;BME280;49406;51.044;3.766;2024-02-15T01:42:20;101675.58;;;13.73;100.00
63281;BME280;49406;51.044;3.766;2024-02-15T01:44:55;101678.23;;;13.76;100.00
63281;BME280;49406;51.044;3.766;2024-02-15T01:47:28;101673.85;;;13.76;100.00
63281;BME280;49406;51.044;3.766;2024-02-15T01:50:03;101674.67;;;13.68;100.00
63281;BME280;49406;51.044;3.766;2024-02-15T01:52:39;101675.31;;;13.61;100.00
63281;BME280;49406;51.044;3.766;2024-02-15T01:55:14;101674.55;;;13.55;100.00
63281;BME280;49406;51.044;3.766;2024-02-15T01:57:49;101667.61;;;13.44;100.00
63281;BME280;49406;51.044;3.766;2024-02-15T02:00:24;101666.84;;;13.39;100.00
63281;BME280;49406;51.044;3.766;2024-02-15T02:02:59;101668.58;;;13.36;100.00
63281;BME280;49406;51.044;3.766;2024-02-15T02:05:37;101671.35;;;13.33;100.00
63281;BME280;49406;51.044;3.766;2024-02-15T02:08:12;101669.91;;;13.29;100.00
63281;BME280;49406;51.044;3.766;2024-02-15T02:10:46;101666.02;;;13.27;100.00
63281;BME280;49406;51.044;3.766;2024-02-15T02:13:21;101662.98;;;13.22;100.00
63281;BME280;49406;51.044;3.766;2024-02-15T02:15:56;101665.38;;;13.16;100.00
63281;BME280;49406;51.044;3.766;2024-02-15T02:18:33;101664.61;;;13.12;100.00
63281;BME280;49406;51.044;3.766;2024-02-15T02:21:08;101657.23;;;13.11;100.00
63281;BME280;49406;51.044;3.766;2024-02-15T02:23:44;101661.27;;;13.12;100.00
63281;BME280;49406;51.044;3.766;2024-02-15T02:26:26;101653.02;;;13.12;100.00
63281;BME280;49406;51.044;3.766;2024-02-15T02:29:00;101646.33;;;13.10;100.00
63281;BME280;49406;51.044;3.766;2024-02-15T02:31:38;101645.84;;;13.12;100.00
63281;BME280;49406;51.044;3.766;2024-02-15T02:34:13;101640.05;;;13.13;100.00
63281;BME280;49406;51.044;3.766;2024-02-15T02:36:48;101639.17;;;13.15;100.00
63281;BME280;49406;51.044;3.766;2024-02-15T02:39:23;101635.85;;;13.15;100.00
63281;BME280;49406;51.044;3.766;2024-02-15T02:42:00;101631.26;;;13.13;100.00
63281;BME280;49406;51.044;3.766;2024-02-15T02:44:34;101639.02;;;13.16;100.00
63281;BME280;49406;51.044;3.766;2024-02-15T02:47:09;101634.84;;;13.18;100.00
63281;BME280;49406;51.044;3.766;2024-02-15T02:49:43;101636.62;;;13.19;100.00
63281;BME280;49406;51.044;3.766;2024-02-15T02:52:18;101632.76;;;13.19;100.00
63281;BME280;49406;51.044;3.766;2024-02-15T02:54:53;101630.48;;;13.20;100.00
63281;BME280;49406;51.044;3.766;2024-02-15T02:57:27;101626.95;;;13.18;100.00
63281;BME280;49406;51.044;3.766;2024-02-15T03:00:03;101618.69;;;13.18;100.00
63281;BME280;49406;51.044;3.766;2024-02-15T03:02:41;101621.86;;;13.19;100.00
63281;BME280;49406;51.044;3.766;2024-02-15T03:05:16;101618.17;;;13.18;100.00
63281;BME280;49406;51.044;3.766;2024-02-15T03:07:53;101617.06;;;13.13;100.00
63281;BME280;49406;51.044;3.766;2024-02-15T03:10:28;101612.94;;;13.08;100.00
63281;BME280;49406;51.044;3.766;2024-02-15T03:13:03;101607.80;;;13.03;100.00
63281;BME280;49406;51.044;3.766;2024-02-15T03:15:38;101609.53;;;13.00;100.00
63281;BME280;49406;51.044;3.766;2024-02-15T03:18:15;101613.89;;;12.98;100.00
63281;BME280;49406;51.044;3.766;2024-02-15T03:20:50;101601.96;;;12.96;100.00
63281;BME280;49406;51.044;3.766;2024-02-15T03:23:25;101594.75;;;12.95;100.00
63281;BME280;49406;51.044;3.766;2024-02-15T03:26:01;101594.75;;;12.96;100.00
63281;BME280;49406;51.044;3.766;2024-02-15T03:28:36;101597.56;;;12.95;100.00
63281;BME280;49406;51.044;3.766;2024-02-15T03:31:11;101594.05;;;12.95;100.00
63281;BME280;49406;51.044;3.766;2024-02-15T03:33:46;101592.44;;;12.93;100.00
63281;BME280;49406;51.044;3.766;2024-02-15T03:36:22;101586.96;;;12.92;100.00
63281;BME280;49406;51.044;3.766;2024-02-15T03:38:57;101585.56;;;12.92;100.00
63281;BME280;49406;51.044;3.766;2024-02-15T03:41:31;101581.75;;;12.94;100.00
63281;BME280;49406;51.044;3.766;2024-02-15T03:44:06;101581.77;;;12.95;100.00
63281;BME280;49406;51.044;3.766;2024-02-15T03:46:42;101582.09;;;12.94;100.00
63281;BME280;49406;51.044;3.766;2024-02-15T03:49:16;101579.83;;;12.94;100.00
63281;BME280;49406;51.044;3.766;2024-02-15T03:51:51;101575.27;;;12.95;100.00
63281;BME280;49406;51.044;3.766;2024-02-15T03:54:28;101582.29;;;12.95;100.00
63281;BME280;49406;51.044;3.766;2024-02-15T03:57:03;101582.48;;;12.96;100.00
63281;BME280;49406;51.044;3.766;2024-02-15T03:59:39;101584.59;;;12.98;100.00
63281;BME280;49406;51.044;3.766;2024-02-15T04:02:14;101587.42;;;13.02;100.00
63281;BME280;49406;51.044;3.766;2024-02-15T04:04:48;101585.52;;;13.04;100.00
63281;BME280;49406;51.044;3.766;2024-02-15T04:07:26;101587.29;;;13.06;100.00
63281;BME280;49406;51.044;3.766;2024-02-15T04:10:00;101584.66;;;13.07;100.00
63281;BME280;49406;51.044;3.766;2024-02-15T04:12:35;101583.41;;;13.06;100.00
63281;BME280;49406;51.044;3.766;2024-02-15T04:15:10;101582.52;;;13.04;100.00
63281;BME280;49406;51.044;3.766;2024-02-15T04:17:45;101580.96;;;13.05;100.00
63281;BME280;49406;51.044;3.766;2024-02-15T04:20:20;101572.89;;;13.06;100.00
63281;BME280;49406;51.044;3.766;2024-02-15T04:22:54;101570.96;;;13.07;100.00
63281;BME280;49406;51.044;3.766;2024-02-15T04:25:31;101571.49;;;13.07;100.00
63281;BME280;49406;51.044;3.766;2024-02-15T04:28:07;101571.84;;;13.06;100.00
63281;BME280;49406;51.044;3.766;2024-02-15T04:30:42;101568.69;;;13.08;100.00
63281;BME280;49406;51.044;3.766;2024-02-15T04:33:17;101569.21;;;13.08;100.00
63281;BME280;49406;51.044;3.766;2024-02-15T04:35:51;101570.61;;;13.07;100.00
63281;BME280;49406;51.044;3.766;2024-02-15T04:38:27;101572.72;;;13.07;100.00
63281;BME280;49406;51.044;3.766;2024-02-15T04:41:12;101572.38;;;13.07;100.00
63281;BME280;49406;51.044;3.766;2024-02-15T04:43:50;101575.70;;;13.07;100.00
63281;BME280;49406;51.044;3.766;2024-02-15T04:46:25;101574.83;;;13.06;100.00
63281;BME280;49406;51.044;3.766;2024-02-15T04:49:00;101568.69;;;13.08;100.00
63281;BME280;49406;51.044;3.766;2024-02-15T04:51:35;101566.75;;;13.07;100.00
63281;BME280;49406;51.044;3.766;2024-02-15T04:54:10;101561.14;;;13.06;100.00
63281;BME280;49406;51.044;3.766;2024-02-15T04:56:46;101557.80;;;13.06;100.00
63281;BME280;49406;51.044;3.766;2024-02-15T04:59:27;101558.86;;;13.08;100.00
63281;BME280;49406;51.044;3.766;2024-02-15T05:02:06;101553.42;;;13.08;100.00
63281;BME280;49406;51.044;3.766;2024-02-15T05:04:42;101540.59;;;13.06;100.00
63281;BME280;49406;51.044;3.766;2024-02-15T05:07:16;101541.84;;;13.09;100.00
63281;BME280;49406;51.044;3.766;2024-02-15T05:09:55;101535.54;;;13.10;100.00
63281;BME280;49406;51.044;3.766;2024-02-15T05:12:34;101529.42;;;13.12;100.00
63281;BME280;49406;51.044;3.766;2024-02-15T05:15:10;101530.66;;;13.12;100.00
63281;BME280;49406;51.044;3.766;2024-02-15T05:17:44;101530.30;;;13.11;100.00
63281;BME280;49406;51.044;3.766;2024-02-15T05:20:19;101535.39;;;13.11;100.00
63281;BME280;49406;51.044;3.766;2024-02-15T05:22:54;101533.83;;;13.13;100.00
63281;BME280;49406;51.044;3.766;2024-02-15T05:25:28;101538.59;;;13.16;100.00
63281;BME280;49406;51.044;3.766;2024-02-15T05:28:06;101535.60;;;13.15;100.00
63281;BME280;49406;51.044;3.766;2024-02-15T05:30:42;101534.54;;;13.15;100.00
63281;BME280;49406;51.044;3.766;2024-02-15T05:33:18;101540.71;;;13.16;100.00
63281;BME280;49406;51.044;3.766;2024-02-15T05:35:54;101538.47;;;13.19;100.00
63281;BME280;49406;51.044;3.766;2024-02-15T05:38:29;101534.45;;;13.22;100.00
63281;BME280;49406;51.044;3.766;2024-02-15T05:41:04;101534.14;;;13.27;100.00
63281;BME280;49406;51.044;3.766;2024-02-15T05:43:40;101530.29;;;13.27;100.00
63281;BME280;49406;51.044;3.766;2024-02-15T05:46:16;101530.30;;;13.28;100.00
63281;BME280;49406;51.044;3.766;2024-02-15T05:48:50;101525.55;;;13.27;100.00
63281;BME280;49406;51.044;3.766;2024-02-15T05:51:28;101523.83;;;13.31;100.00
63281;BME280;49406;51.044;3.766;2024-02-15T05:54:06;101516.29;;;13.33;100.00
63281;BME280;49406;51.044;3.766;2024-02-15T05:56:41;101513.30;;;13.33;100.00
63281;BME280;49406;51.044;3.766;2024-02-15T05:59:16;101511.70;;;13.29;100.00
63281;BME280;49406;51.044;3.766;2024-02-15T06:01:53;101508.54;;;13.31;100.00
63281;BME280;49406;51.044;3.766;2024-02-15T06:04:27;101506.10;;;13.33;100.00
63281;BME280;49406;51.044;3.766;2024-02-15T06:07:03;101503.46;;;13.34;100.00
63281;BME280;49406;51.044;3.766;2024-02-15T06:09:37;101503.98;;;13.31;100.00
63281;BME280;49406;51.044;3.766;2024-02-15T06:12:13;101495.38;;;13.31;100.00
63281;BME280;49406;51.044;3.766;2024-02-15T06:14:48;101502.36;;;13.27;100.00
63281;BME280;49406;51.044;3.766;2024-02-15T06:17:23;101501.48;;;13.27;100.00
63281;BME280;49406;51.044;3.766;2024-02-15T06:19:58;101494.79;;;13.25;100.00
63281;BME280;49406;51.044;3.766;2024-02-15T06:22:32;101498.11;;;13.24;100.00
63281;BME280;49406;51.044;3.766;2024-02-15T06:25:09;101505.31;;;13.24;100.00
63281;BME280;49406;51.044;3.766;2024-02-15T06:27:44;101516.02;;;13.23;100.00
63281;BME280;49406;51.044;3.766;2024-02-15T06:30:20;101511.80;;;13.23;100.00
63281;BME280;49406;51.044;3.766;2024-02-15T06:33:12;101511.29;;;13.24;100.00
63281;BME280;49406;51.044;3.766;2024-02-15T06:36:07;101507.95;;;13.25;100.00
63281;BME280;49406;51.044;3.766;2024-02-15T06:38:59;101506.23;;;13.27;100.00
63281;BME280;49406;51.044;3.766;2024-02-15T06:41:51;101505.20;;;13.29;100.00
63281;BME280;49406;51.044;3.766;2024-02-15T06:44:26;101506.96;;;13.31;100.00
63281;BME280;49406;51.044;3.766;2024-02-15T06:47:00;101508.77;;;13.39;100.00
63281;BME280;49406;51.044;3.766;2024-02-15T06:49:35;101514.92;;;13.41;100.00
63281;BME280;49406;51.044;3.766;2024-02-15T06:52:10;101515.44;;;13.40;100.00
63281;BME280;49406;51.044;3.766;2024-02-15T06:54:46;101520.02;;;13.40;100.00
63281;BME280;49406;51.044;3.766;2024-02-15T06:57:22;101516.84;;;13.39;100.00
63281;BME280;49406;51.044;3.766;2024-02-15T06:59:56;101518.44;;;13.41;100.00
63281;BME280;49406;51.044;3.766;2024-02-15T07:02:31;101518.07;;;13.38;100.00
63281;BME280;49406;51.044;3.766;2024-02-15T07:05:05;101524.92;;;13.40;100.00
63281;BME280;49406;51.044;3.766;2024-02-15T07:07:40;101522.31;;;13.42;100.00
63281;BME280;49406;51.044;3.766;2024-02-15T07:10:15;101527.21;;;13.40;100.00
63281;BME280;49406;51.044;3.766;2024-02-15T07:12:50;101528.06;;;13.35;100.00
63281;BME280;49406;51.044;3.766;2024-02-15T07:15:25;101536.32;;;13.36;100.00
63281;BME280;49406;51.044;3.766;2024-02-15T07:18:00;101541.75;;;13.33;100.00
63281;BME280;49406;51.044;3.766;2024-02-15T07:20:35;101545.95;;;13.31;100.00
63281;BME280;49406;51.044;3.766;2024-02-15T07:23:10;101546.28;;;13.28;100.00
63281;BME280;49406;51.044;3.766;2024-02-15T07:25:44;101547.45;;;13.24;100.00
63281;BME280;49406;51.044;3.766;2024-02-15T07:28:20;101546.88;;;13.17;100.00
63281;BME280;49406;51.044;3.766;2024-02-15T07:30:55;101547.17;;;13.13;100.00
63281;BME280;49406;51.044;3.766;2024-02-15T07:33:29;101547.27;;;13.07;100.00
63281;BME280;49406;51.044;3.766;2024-02-15T07:36:05;101544.41;;;13.01;100.00
63281;BME280;49406;51.044;3.766;2024-02-15T07:38:39;101546.13;;;12.95;100.00
63281;BME280;49406;51.044;3.766;2024-02-15T07:41:14;101545.89;;;12.91;100.00
63281;BME280;49406;51.044;3.766;2024-02-15T07:43:48;101544.48;;;12.89;100.00
63281;BME280;49406;51.044;3.766;2024-02-15T07:46:23;101541.32;;;12.90;100.00
63281;BME280;49406;51.044;3.766;2024-02-15T07:48:58;101542.36;;;12.89;100.00
63281;BME280;49406;51.044;3.766;2024-02-15T07:51:33;101542.88;;;12.87;100.00
63281;BME280;49406;51.044;3.766;2024-02-15T07:54:07;101542.69;;;12.86;100.00
63281;BME280;49406;51.044;3.766;2024-02-15T07:56:42;101540.20;;;12.83;100.00
63281;BME280;49406;51.044;3.766;2024-02-15T07:59:17;101538.10;;;12.83;100.00
63281;BME280;49406;51.044;3.766;2024-02-15T08:01:52;101536.86;;;12.82;100.00
63281;BME280;49406;51.044;3.766;2024-02-15T08:04:26;101538.43;;;12.79;100.00
63281;BME280;49406;51.044;3.766;2024-02-15T08:07:01;101541.17;;;12.75;100.00
63281;BME280;49406;51.044;3.766;2024-02-15T08:09:36;101545.55;;;12.75;100.00
63281;BME280;49406;51.044;3.766;2024-02-15T08:12:11;101542.73;;;12.73;100.00
63281;BME280;49406;51.044;3.766;2024-02-15T08:14:45;101540.98;;;12.73;100.00
63281;BME280;49406;51.044;3.766;2024-02-15T08:17:20;101538.86;;;12.73;100.00
63281;BME280;49406;51.044;3.766;2024-02-15T08:19:54;101537.09;;;12.72;100.00
63281;BME280;49406;51.044;3.766;2024-02-15T08:22:29;101532.02;;;12.72;100.00
63281;BME280;49406;51.044;3.766;2024-02-15T08:25:04;101530.83;;;12.75;100.00
63281;BME280;49406;51.044;3.766;2024-02-15T08:27:41;101534.89;;;12.77;100.00
63281;BME280;49406;51.044;3.766;2024-02-15T08:30:18;101534.21;;;12.79;100.00
63281;BME280;49406;51.044;3.766;2024-02-15T08:32:52;101525.79;;;12.79;100.00
63281;BME280;49406;51.044;3.766;2024-02-15T08:35:27;101522.98;;;12.79;100.00
63281;BME280;49406;51.044;3.766;2024-02-15T08:38:02;101519.84;;;12.82;100.00
63281;BME280;49406;51.044;3.766;2024-02-15T08:40:38;101514.24;;;12.84;100.00
63281;BME280;49406;51.044;3.766;2024-02-15T08:43:13;101519.02;;;12.89;100.00
63281;BME280;49406;51.044;3.766;2024-02-15T08:45:48;101528.00;;;12.92;100.00
63281;BME280;49406;51.044;3.766;2024-02-15T08:48:23;101522.05;;;12.93;100.00
63281;BME280;49406;51.044;3.766;2024-02-15T08:50:58;101516.33;;;13.00;100.00
63281;BME280;49406;51.044;3.766;2024-02-15T08:53:33;101507.42;;;13.07;100.00
63281;BME280;49406;51.044;3.766;2024-02-15T08:56:07;101506.67;;;13.18;100.00
63281;BME280;49406;51.044;3.766;2024-02-15T08:58:43;101493.58;;;13.28;100.00
63281;BME280;49406;51.044;3.766;2024-02-15T09:01:17;101498.04;;;13.36;100.00
63281;BME280;49406;51.044;3.766;2024-02-15T09:03:52;101493.00;;;13.43;100.00
63281;BME280;49406;51.044;3.766;2024-02-15T09:06:27;101493.40;;;13.51;100.00
63281;BME280;49406;51.044;3.766;2024-02-15T09:09:01;101498.58;;;13.64;100.00
63281;BME280;49406;51.044;3.766;2024-02-15T09:11:35;101493.20;;;13.76;100.00
63281;BME280;49406;51.044;3.766;2024-02-15T09:14:10;101488.32;;;13.85;100.00
63281;BME280;49406;51.044;3.766;2024-02-15T09:16:45;101489.09;;;13.98;100.00
63281;BME280;49406;51.044;3.766;2024-02-15T09:19:20;101490.56;;;14.13;100.00
63281;BME280;49406;51.044;3.766;2024-02-15T09:21:54;101493.06;;;14.26;100.00
63281;BME280;49406;51.044;3.766;2024-02-15T09:24:30;101496.27;;;14.39;100.00
63281;BME280;49406;51.044;3.766;2024-02-15T09:27:06;101499.51;;;14.50;100.00
63281;BME280;49406;51.044;3.766;2024-02-15T09:29:41;101500.58;;;14.60;100.00
63281;BME280;49406;51.044;3.766;2024-02-15T09:32:15;101498.67;;;14.69;100.00
63281;BME280;49406;51.044;3.766;2024-02-15T09:34:50;101495.85;;;14.73;100.00
63281;BME280;49406;51.044;3.766;2024-02-15T09:37:24;101490.41;;;14.81;100.00
63281;BME280;49406;51.044;3.766;2024-02-15T09:40:01;101482.14;;;14.90;100.00
63281;BME280;49406;51.044;3.766;2024-02-15T09:42:40;101468.23;;;14.94;100.00
63281;BME280;49406;51.044;3.766;2024-02-15T09:45:15;101471.05;;;15.03;100.00
63281;BME280;49406;51.044;3.766;2024-02-15T09:47:51;101477.38;;;15.10;100.00
63281;BME280;49406;51.044;3.766;2024-02-15T09:50:28;101480.91;;;15.15;100.00
63281;BME280;49406;51.044;3.766;2024-02-15T09:53:05;101484.27;;;15.19;100.00
63281;BME280;49406;51.044;3.766;2024-02-15T09:55:43;101482.67;;;15.20;100.00
63281;BME280;49406;51.044;3.766;2024-02-15T09:58:17;101485.66;;;15.25;100.00
63281;BME280;49406;51.044;3.766;2024-02-15T10:00:53;101485.14;;;15.32;100.00
63281;BME280;49406;51.044;3.766;2024-02-15T10:03:28;101479.66;;;15.33;100.00
63281;BME280;49406;51.044;3.766;2024-02-15T10:06:05;101472.97;;;15.36;100.00
63281;BME280;49406;51.044;3.766;2024-02-15T10:08:40;101468.20;;;15.36;100.00
63281;BME280;49406;51.044;3.766;2024-02-15T10:11:14;101464.13;;;15.45;100.00
63281;BME280;49406;51.044;3.766;2024-02-15T10:13:49;101463.61;;;15.49;100.00
63281;BME280;49406;51.044;3.766;2024-02-15T10:16:24;101464.48;;;15.58;100.00
63281;BME280;49406;51.044;3.766;2024-02-15T10:19:09;101462.16;;;15.73;100.00
63281;BME280;49406;51.044;3.766;2024-02-15T10:21:44;101461.41;;;15.87;100.00
63281;BME280;49406;51.044;3.766;2024-02-15T10:24:19;101457.10;;;16.04;100.00
63281;BME280;49406;51.044;3.766;2024-02-15T10:27:02;101455.65;;;16.14;100.00
63281;BME280;49406;51.044;3.766;2024-02-15T10:29:37;101453.09;;;16.30;100.00
63281;BME280;49406;51.044;3.766;2024-02-15T10:32:13;101445.23;;;16.46;100.00
63281;BME280;49406;51.044;3.766;2024-02-15T10:34:45;101443.88;;;16.65;100.00
63281;BME280;49406;51.044;3.766;2024-02-15T10:37:21;101434.63;;;16.76;100.00
63281;BME280;49406;51.044;3.766;2024-02-15T10:40:07;101435.70;;;16.96;100.00
63281;BME280;49406;51.044;3.766;2024-02-15T10:42:43;101437.55;;;17.05;100.00
63281;BME280;49406;51.044;3.766;2024-02-15T10:45:19;101433.15;;;17.05;100.00
63281;BME280;49406;51.044;3.766;2024-02-15T10:47:54;101433.27;;;17.11;100.00
63281;BME280;49406;51.044;3.766;2024-02-15T10:50:29;101433.77;;;17.14;100.00
63281;BME280;49406;51.044;3.766;2024-02-15T10:53:03;101429.89;;;17.12;100.00
63281;BME280;49406;51.044;3.766;2024-02-15T10:55:48;101429.04;;;17.09;100.00
63281;BME280;49406;51.044;3.766;2024-02-15T10:58:25;101430.80;;;17.10;100.00
63281;BME280;49406;51.044;3.766;2024-02-15T11:01:01;101431.34;;;17.09;100.00
63281;BME280;49406;51.044;3.766;2024-02-15T11:03:43;101429.03;;;17.10;100.00
63281;BME280;49406;51.044;3.766;2024-02-15T11:06:22;101428.48;;;17.11;100.00
63281;BME280;49406;51.044;3.766;2024-02-15T11:08:58;101419.98;;;17.16;100.00
63281;BME280;49406;51.044;3.766;2024-02-15T11:11:34;101413.02;;;17.23;100.00
63281;BME280;49406;51.044;3.766;2024-02-15T11:14:27;101410.36;;;17.22;100.00
63281;BME280;49406;51.044;3.766;2024-02-15T11:17:00;101410.48;;;17.28;100.00
63281;BME280;49406;51.044;3.766;2024-02-15T11:19:44;101408.54;;;17.27;100.00
63281;BME280;49406;51.044;3.766;2024-02-15T11:22:20;101406.60;;;17.27;100.00
63281;BME280;49406;51.044;3.766;2024-02-15T11:24:55;101399.12;;;17.17;100.00
63281;BME280;49406;51.044;3.766;2024-02-15T11:27:30;101396.93;;;17.05;100.00
63281;BME280;49406;51.044;3.766;2024-02-15T11:30:06;101390.43;;;17.02;100.00
63281;BME280;49406;51.044;3.766;2024-02-15T11:32:46;101378.73;;;17.05;100.00
63281;BME280;49406;51.044;3.766;2024-02-15T11:35:23;101377.95;;;17.14;100.00
63281;BME280;49406;51.044;3.766;2024-02-15T11:38:01;101369.57;;;17.21;100.00
63281;BME280;49406;51.044;3.766;2024-02-15T11:41:03;101365.73;;;17.33;100.00
63281;BME280;49406;51.044;3.766;2024-02-15T11:46:31;101358.15;;;17.44;100.00
63281;BME280;49406;51.044;3.766;2024-02-15T11:49:07;101359.33;;;17.51;100.00
63281;BME280;49406;51.044;3.766;2024-02-15T11:51:51;101352.91;;;17.55;100.00
63281;BME280;49406;51.044;3.766;2024-02-15T11:54:25;101347.17;;;17.62;100.00
63281;BME280;49406;51.044;3.766;2024-02-15T11:57:00;101344.59;;;17.71;100.00
63281;BME280;49406;51.044;3.766;2024-02-15T11:59:46;101342.73;;;17.78;100.00
63281;BME280;49406;51.044;3.766;2024-02-15T12:02:37;101337.49;;;17.73;100.00
63281;BME280;49406;51.044;3.766;2024-02-15T12:05:29;101332.62;;;17.67;100.00
63281;BME280;49406;51.044;3.766;2024-02-15T12:08:21;101337.04;;;17.67;100.00
63281;BME280;49406;51.044;3.766;2024-02-15T12:11:16;101333.30;;;17.69;100.00
63281;BME280;49406;51.044;3.766;2024-02-15T12:14:13;101334.47;;;17.74;100.00
63281;BME280;49406;51.044;3.766;2024-02-15T12:17:07;101328.19;;;17.82;100.00
63281;BME280;49406;51.044;3.766;2024-02-15T12:20:01;101328.46;;;17.87;100.00
63281;BME280;49406;51.044;3.766;2024-02-15T12:22:42;101324.63;;;17.84;100.00
63281;BME280;49406;51.044;3.766;2024-02-15T12:25:18;101317.27;;;17.79;100.00
63281;BME280;49406;51.044;3.766;2024-02-15T12:27:59;101310.35;;;17.79;100.00
63281;BME280;49406;51.044;3.766;2024-02-15T12:30:35;101296.98;;;17.86;100.00
63281;BME280;49406;51.044;3.766;2024-02-15T12:33:12;101295.63;;;18.05;100.00
63281;BME280;49406;51.044;3.766;2024-02-15T12:36:02;101292.88;;;18.12;100.00
63281;BME280;49406;51.044;3.766;2024-02-15T12:38:38;101289.39;;;18.09;100.00
63281;BME280;49406;51.044;3.766;2024-02-15T12:41:24;101285.09;;;18.12;100.00
63281;BME280;49406;51.044;3.766;2024-02-15T12:43:59;101277.29;;;18.13;100.00
63281;BME280;49406;51.044;3.766;2024-02-15T12:46:34;101273.78;;;18.11;100.00
63281;BME280;49406;51.044;3.766;2024-02-15T12:49:12;101270.65;;;18.19;100.00
63281;BME280;49406;51.044;3.766;2024-02-15T12:51:53;101268.27;;;18.24;100.00
63281;BME280;49406;51.044;3.766;2024-02-15T12:54:28;101266.70;;;18.22;100.00
63281;BME280;49406;51.044;3.766;2024-02-15T12:57:10;101263.60;;;18.27;100.00
63281;BME280;49406;51.044;3.766;2024-02-15T12:59:47;101261.77;;;18.31;100.00
63281;BME280;49406;51.044;3.766;2024-02-15T13:02:21;101253.53;;;18.38;100.00
63281;BME280;49406;51.044;3.766;2024-02-15T13:05:00;101245.95;;;18.44;100.00
63281;BME280;49406;51.044;3.766;2024-02-15T13:07:37;101244.13;;;18.48;100.00
63281;BME280;49406;51.044;3.766;2024-02-15T13:10:11;101241.76;;;18.52;100.00
63281;BME280;49406;51.044;3.766;2024-02-15T13:12:48;101238.05;;;18.52;100.00
63281;BME280;49406;51.044;3.766;2024-02-15T13:15:24;101240.98;;;18.56;100.00
63281;BME280;49406;51.044;3.766;2024-02-15T13:18:06;101237.29;;;18.66;100.00
63281;BME280;49406;51.044;3.766;2024-02-15T13:20:41;101239.08;;;18.74;100.00
63281;BME280;49406;51.044;3.766;2024-02-15T13:23:16;101236.45;;;18.73;100.00
63281;BME280;49406;51.044;3.766;2024-02-15T13:25:55;101231.56;;;18.69;100.00
63281;BME280;49406;51.044;3.766;2024-02-15T13:28:29;101223.71;;;18.60;100.00
63281;BME280;49406;51.044;3.766;2024-02-15T13:31:04;101225.41;;;18.55;100.00